Pikangikum, Canada
Current Conditions -  °F | °C
As of 9:00 PM on Tuesday 27 Jan 2015 (Local Time) from CYRL Reporting Station
Light Snow Light Snow  
Wind Chill: 25°   Ceiling: 1500
Heat Index: 25°   Visibility: 15mi
Dew Point: 23°   Wind: 3mph
Humidity: 93%   Direction: 130°SE
Pressure: 29.98"   Gusts: NA
Location:  51.82°N, 94°W
Report Text: CYRL 280300Z 13003KT 15SM -SN FEW007 BKN015 OVC080 M04/M05 A2998 RMK SF2SC3AC3 LAST STFD OBS/NEXT 281000UTC SLP176
Loading
Personal Weather Stations






























Interactive Weather Map New forecast layout! Learn more

10-Day Weather Forecast

Advertisements
Track Severe Weather on mobile